createdAt,value
2018-07-03T00:00:29.771Z,63.02
2018-07-03T00:01:01.346Z,63.15
2018-07-03T00:01:32.954Z,63.15
2018-07-03T00:02:04.537Z,63.00
2018-07-03T00:02:36.145Z,62.90
2018-07-03T00:03:07.724Z,63.06
2018-07-03T00:03:39.352Z,62.96
2018-07-03T00:04:10.941Z,63.07
2018-07-03T00:04:42.526Z,63.00
2018-07-03T00:05:14.125Z,63.34
2018-07-03T00:05:45.720Z,63.17
2018-07-03T00:06:17.316Z,63.15
2018-07-03T00:06:48.912Z,62.99
2018-07-03T00:07:20.517Z,63.04
2018-07-03T00:07:52.092Z,63.21
2018-07-03T00:08:23.673Z,63.26
2018-07-03T00:08:55.255Z,63.12
2018-07-03T00:09:26.846Z,63.25
2018-07-03T00:09:58.452Z,63.29
2018-07-03T00:10:30.047Z,63.14
2018-07-03T00:11:01.661Z,63.28
2018-07-03T00:11:33.254Z,63.10
2018-07-03T00:12:04.828Z,63.14
2018-07-03T00:12:36.410Z,63.31
2018-07-03T00:13:08.014Z,63.22
2018-07-03T00:13:39.646Z,63.02
2018-07-03T00:14:11.253Z,63.04
2018-07-03T00:14:42.857Z,63.06
2018-07-03T00:15:14.464Z,62.97
2018-07-03T00:15:46.073Z,62.96
2018-07-03T00:16:17.648Z,63.00
2018-07-03T00:16:49.226Z,62.84
2018-07-03T00:17:20.814Z,63.00
2018-07-03T00:17:52.386Z,62.80
2018-07-03T00:18:23.969Z,62.87
2018-07-03T00:18:55.573Z,63.05
2018-07-03T00:19:27.181Z,63.13
2018-07-03T00:19:58.792Z,63.06
2018-07-03T00:20:30.407Z,63.20
2018-07-03T00:21:02.017Z,63.08
2018-07-03T00:21:33.626Z,63.18
2018-07-03T00:22:05.220Z,63.05
2018-07-03T00:22:36.799Z,63.30
2018-07-03T00:23:08.415Z,63.14
2018-07-03T00:23:40.051Z,63.09
2018-07-03T00:24:11.640Z,63.07
2018-07-03T00:24:43.221Z,63.17
2018-07-03T00:25:14.820Z,63.15
2018-07-03T00:25:46.415Z,63.04
2018-07-03T00:26:18.026Z,63.43
2018-07-03T00:26:49.633Z,63.24
2018-07-03T00:27:21.208Z,63.31
2018-07-03T00:27:52.810Z,63.44
2018-07-03T00:28:24.384Z,63.26
2018-07-03T00:28:55.956Z,63.28
2018-07-03T00:29:27.556Z,63.05
2018-07-03T00:29:59.164Z,63.36
2018-07-03T00:30:30.745Z,63.19
2018-07-03T00:31:02.350Z,63.11
2018-07-03T00:31:33.962Z,63.01
2018-07-03T00:32:05.539Z,63.29
2018-07-03T00:32:37.117Z,63.46
2018-07-03T00:33:08.707Z,63.22
2018-07-03T00:33:40.327Z,62.98
2018-07-03T00:34:11.913Z,63.02
2018-07-03T00:34:43.519Z,63.11
2018-07-03T00:35:15.112Z,63.17
2018-07-03T00:35:46.715Z,63.06
2018-07-03T00:36:18.285Z,63.26
2018-07-03T00:36:49.889Z,63.43
2018-07-03T00:37:21.501Z,63.42
2018-07-03T00:37:53.095Z,63.48
2018-07-03T00:38:24.700Z,63.52
2018-07-03T00:38:56.300Z,63.69
2018-07-03T00:39:27.876Z,63.86
2018-07-03T00:39:59.458Z,63.56
2018-07-03T00:40:31.060Z,63.61
2018-07-03T00:41:02.640Z,63.48
2018-07-03T00:41:34.237Z,63.54
2018-07-03T00:42:05.837Z,63.69
2018-07-03T00:42:37.436Z,63.56
2018-07-03T00:43:09.041Z,63.56
2018-07-03T00:43:40.685Z,63.60
2018-07-03T00:44:12.297Z,63.45
2018-07-03T00:44:43.910Z,63.53
2018-07-03T00:45:15.520Z,63.49
2018-07-03T00:45:47.130Z,63.41
2018-07-03T00:46:18.737Z,63.34
2018-07-03T00:46:50.325Z,63.33
2018-07-03T00:47:21.899Z,63.34
2018-07-03T00:47:53.500Z,63.42
2018-07-03T00:48:25.082Z,63.46
2018-07-03T00:48:56.733Z,63.44
2018-07-03T00:49:28.345Z,63.34
2018-07-03T00:49:59.940Z,63.44
2018-07-03T00:50:31.523Z,63.16
2018-07-03T00:51:03.121Z,63.31
2018-07-03T00:51:34.733Z,63.46
2018-07-03T00:52:06.337Z,63.39
2018-07-03T00:52:37.917Z,63.22
2018-07-03T00:53:09.520Z,63.37
2018-07-03T00:53:41.140Z,63.21
2018-07-03T00:54:12.740Z,63.12
2018-07-03T00:54:44.332Z,63.15
2018-07-03T00:55:15.903Z,63.30
2018-07-03T00:55:47.482Z,63.25
2018-07-03T00:56:19.048Z,63.45
2018-07-03T00:56:50.707Z,63.37
2018-07-03T00:57:22.297Z,63.25
2018-07-03T00:57:53.868Z,63.37
2018-07-03T00:58:25.460Z,63.22
2018-07-03T00:58:57.105Z,63.11
2018-07-03T00:59:28.713Z,63.16
2018-07-03T01:00:00.326Z,63.21
2018-07-03T01:00:31.913Z,63.18
2018-07-03T01:01:03.503Z,63.24
2018-07-03T01:01:35.075Z,63.27
2018-07-03T01:02:06.653Z,63.16
2018-07-03T01:02:38.233Z,63.26
2018-07-03T01:03:09.817Z,63.17
2018-07-03T01:03:41.421Z,63.33
2018-07-03T01:04:13.025Z,63.18
2018-07-03T01:04:44.625Z,63.30
2018-07-03T01:05:16.216Z,63.12
2018-07-03T01:05:47.817Z,63.21
2018-07-03T01:06:19.421Z,63.17
2018-07-03T01:06:51.024Z,63.00
2018-07-03T01:07:22.629Z,63.16
2018-07-03T01:07:54.234Z,63.04
2018-07-03T01:08:25.838Z,63.10
2018-07-03T01:08:57.441Z,63.16
2018-07-03T01:09:29.040Z,63.20
2018-07-03T01:10:00.627Z,63.19
2018-07-03T01:10:32.213Z,63.19
2018-07-03T01:11:03.814Z,63.07
2018-07-03T01:11:35.396Z,63.17
2018-07-03T01:12:06.968Z,63.19
2018-07-03T01:12:38.554Z,63.18
2018-07-03T01:13:10.138Z,63.12
2018-07-03T01:13:41.726Z,63.22
2018-07-03T01:14:13.369Z,63.10
2018-07-03T01:14:44.973Z,63.09
2018-07-03T01:15:16.568Z,63.16
2018-07-03T01:15:48.139Z,63.03
2018-07-03T01:16:19.745Z,62.97
2018-07-03T01:16:51.358Z,63.05
2018-07-03T01:17:22.962Z,63.06
2018-07-03T01:17:54.565Z,63.10
2018-07-03T01:18:26.148Z,63.13
2018-07-03T01:18:57.754Z,63.04
2018-07-03T01:19:29.356Z,63.21
2018-07-03T01:20:00.961Z,63.21
2018-07-03T01:20:32.572Z,63.14
2018-07-03T01:21:04.154Z,63.17
2018-07-03T01:21:35.789Z,63.18
2018-07-03T01:22:07.397Z,63.19
2018-07-03T01:22:38.969Z,63.16
2018-07-03T01:23:10.573Z,63.18
2018-07-03T01:23:42.154Z,63.17
2018-07-03T01:24:13.738Z,63.14
2018-07-03T01:24:45.365Z,63.02
2018-07-03T01:25:16.949Z,63.06
2018-07-03T01:25:48.565Z,63.02
2018-07-03T01:26:20.169Z,63.17
2018-07-03T01:26:51.759Z,63.18
2018-07-03T01:27:23.360Z,63.09
2018-07-03T01:27:54.945Z,62.95
2018-07-03T01:28:26.528Z,63.04
2018-07-03T01:28:58.137Z,63.00
2018-07-03T01:29:29.739Z,63.07
2018-07-03T01:30:01.322Z,63.11
2018-07-03T01:30:32.901Z,63.01
2018-07-03T01:31:04.478Z,63.04
2018-07-03T01:31:36.082Z,62.98
2018-07-03T01:32:07.690Z,62.95
2018-07-03T01:32:39.273Z,62.98
2018-07-03T01:33:10.873Z,63.20
2018-07-03T01:33:42.482Z,63.26
2018-07-03T01:34:14.075Z,63.50
2018-07-03T01:34:45.686Z,63.35
2018-07-03T01:35:17.285Z,63.36
2018-07-03T01:35:48.884Z,63.22
2018-07-03T01:36:20.484Z,63.19
2018-07-03T01:36:52.066Z,63.09
2018-07-03T01:37:23.669Z,63.24
2018-07-03T01:37:55.244Z,63.21
2018-07-03T01:38:26.836Z,63.15
2018-07-03T01:38:58.421Z,63.09
2018-07-03T01:39:30.042Z,63.13
2018-07-03T01:40:01.655Z,63.05
2018-07-03T01:40:33.245Z,63.00
2018-07-03T01:41:04.823Z,63.13
2018-07-03T01:41:36.392Z,63.19
2018-07-03T01:42:07.963Z,63.26
2018-07-03T01:42:39.546Z,63.09
2018-07-03T01:43:11.140Z,63.15
2018-07-03T01:43:42.731Z,63.11
2018-07-03T01:44:14.337Z,63.20
2018-07-03T01:44:45.936Z,63.06
2018-07-03T01:45:17.517Z,63.12
2018-07-03T01:45:49.101Z,63.17
2018-07-03T01:46:20.692Z,63.28
2018-07-03T01:46:52.277Z,63.27
2018-07-03T01:47:23.882Z,63.44
2018-07-03T01:47:55.489Z,63.49
2018-07-03T01:48:27.060Z,63.38
2018-07-03T01:48:58.627Z,63.27
2018-07-03T01:49:30.209Z,63.27
2018-07-03T01:50:01.818Z,63.30
2018-07-03T01:50:33.425Z,63.23
2018-07-03T01:51:05.038Z,63.29
2018-07-03T01:51:36.641Z,63.46
2018-07-03T01:52:08.221Z,63.63
2018-07-03T01:52:39.816Z,63.52
2018-07-03T01:53:11.388Z,63.69
2018-07-03T01:53:42.957Z,63.59
2018-07-03T01:54:14.524Z,63.47
2018-07-03T01:54:46.110Z,63.54
2018-07-03T01:55:17.727Z,63.44
2018-07-03T01:55:49.305Z,63.45
2018-07-03T01:56:20.909Z,63.56
2018-07-03T01:56:52.512Z,63.62
2018-07-03T01:57:24.146Z,63.86
2018-07-03T01:57:55.749Z,63.57
2018-07-03T01:58:27.337Z,63.56
2018-07-03T01:58:58.941Z,63.54
2018-07-03T01:59:30.536Z,63.57
2018-07-03T02:00:02.173Z,63.46
2018-07-03T02:00:33.754Z,63.72
2018-07-03T02:01:05.358Z,63.81
2018-07-03T02:01:36.961Z,63.84
2018-07-03T02:02:08.556Z,63.70
2018-07-03T02:02:40.141Z,63.73
2018-07-03T02:03:11.726Z,63.76
2018-07-03T02:03:43.305Z,63.80
2018-07-03T02:04:14.889Z,63.91
2018-07-03T02:04:46.477Z,63.91
2018-07-03T02:05:18.109Z,63.90
2018-07-03T02:05:49.716Z,64.11
2018-07-03T02:06:21.297Z,63.99
2018-07-03T02:06:52.877Z,63.99
2018-07-03T02:07:24.453Z,64.07
2018-07-03T02:07:56.056Z,64.25
2018-07-03T02:08:27.664Z,64.08
2018-07-03T02:08:59.272Z,64.06
2018-07-03T02:09:30.878Z,64.41
2018-07-03T02:10:02.514Z,64.21
2018-07-03T02:10:34.097Z,64.29
2018-07-03T02:11:05.706Z,64.26
2018-07-03T02:11:37.313Z,64.23
2018-07-03T02:12:08.920Z,64.33
2018-07-03T02:12:40.505Z,64.37
2018-07-03T02:13:12.109Z,64.51
2018-07-03T02:13:43.689Z,64.53
2018-07-03T02:14:15.272Z,64.37
2018-07-03T02:14:46.844Z,64.59
2018-07-03T02:15:18.459Z,64.46
2018-07-03T02:15:50.046Z,64.74
2018-07-03T02:16:21.636Z,64.56
2018-07-03T02:16:53.232Z,64.47
2018-07-03T02:17:24.819Z,64.52
2018-07-03T02:17:56.401Z,64.67
2018-07-03T02:18:27.991Z,64.46
2018-07-03T02:18:59.582Z,64.62
2018-07-03T02:19:31.190Z,64.60
2018-07-03T02:20:02.825Z,64.59
2018-07-03T02:20:34.397Z,64.73
2018-07-03T02:21:05.992Z,65.01
2018-07-03T02:21:37.578Z,64.91
2018-07-03T02:22:09.148Z,65.05
2018-07-03T02:22:40.753Z,64.88
2018-07-03T02:23:12.338Z,65.15
2018-07-03T02:23:43.920Z,64.97
2018-07-03T02:24:15.512Z,64.95
2018-07-03T02:24:47.112Z,64.93
2018-07-03T02:25:18.750Z,65.22
2018-07-03T02:25:50.365Z,65.03
2018-07-03T02:26:21.969Z,64.92
2018-07-03T02:26:53.573Z,65.06
2018-07-03T02:27:25.153Z,65.11
2018-07-03T02:27:56.743Z,65.18
2018-07-03T02:28:28.345Z,65.14
2018-07-03T02:28:59.952Z,65.23
2018-07-03T02:29:31.523Z,65.32
2018-07-03T02:30:03.126Z,65.29
2018-07-03T02:30:34.733Z,65.04
2018-07-03T02:31:06.318Z,65.07
2018-07-03T02:31:37.916Z,65.31
2018-07-03T02:32:09.512Z,65.28
2018-07-03T02:32:41.088Z,65.44
2018-07-03T02:33:12.693Z,65.65
2018-07-03T02:33:44.301Z,65.54
2018-07-03T02:34:15.885Z,65.46
2018-07-03T02:34:47.476Z,65.59
2018-07-03T02:35:19.108Z,65.54
2018-07-03T02:35:50.715Z,65.60
2018-07-03T02:36:22.321Z,65.52
2018-07-03T02:36:53.916Z,65.83
2018-07-03T02:37:25.521Z,65.49
2018-07-03T02:37:57.130Z,65.79
2018-07-03T02:38:28.741Z,65.98
2018-07-03T02:39:00.336Z,65.59
2018-07-03T02:39:31.957Z,65.76
2018-07-03T02:40:03.605Z,65.66
2018-07-03T02:40:35.180Z,65.71
2018-07-03T02:41:06.766Z,66.25
2018-07-03T02:41:38.344Z,66.69
2018-07-03T02:42:09.920Z,66.27
2018-07-03T02:42:41.502Z,65.97
2018-07-03T02:43:13.116Z,66.04
2018-07-03T02:43:44.726Z,65.96
2018-07-03T02:44:16.296Z,65.88
2018-07-03T02:44:47.901Z,65.77
2018-07-03T02:45:19.541Z,65.60
2018-07-03T02:45:51.136Z,65.39
2018-07-03T02:46:22.740Z,65.19
2018-07-03T02:46:54.349Z,65.08
2018-07-03T02:47:25.959Z,64.82
2018-07-03T02:47:57.561Z,64.72
2018-07-03T02:48:29.168Z,64.64
2018-07-03T02:49:00.755Z,64.42
2018-07-03T02:49:32.357Z,64.29
2018-07-03T02:50:03.968Z,64.14
2018-07-03T02:50:35.563Z,64.62
2018-07-03T02:51:07.153Z,64.33
2018-07-03T02:51:38.724Z,64.18
2018-07-03T02:52:10.325Z,64.37
2018-07-03T02:52:41.903Z,64.19
2018-07-03T02:53:13.487Z,64.12
2018-07-03T02:53:45.073Z,64.17
2018-07-03T02:54:16.667Z,64.15
2018-07-03T02:54:48.262Z,64.01
2018-07-03T02:55:19.894Z,63.60
2018-07-03T02:55:51.486Z,63.27
2018-07-03T02:56:23.067Z,62.94
2018-07-03T02:56:54.645Z,62.70
2018-07-03T02:57:26.245Z,62.55
2018-07-03T02:57:57.853Z,62.58
2018-07-03T02:58:29.438Z,62.89
2018-07-03T02:59:01.004Z,63.10
2018-07-03T02:59:32.587Z,62.90
2018-07-03T03:00:04.197Z,63.06
2018-07-03T03:00:35.818Z,62.84
2018-07-03T03:01:07.415Z,62.65
2018-07-03T03:01:39.026Z,63.08
2018-07-03T03:02:14.313Z,62.65
2018-07-03T03:02:45.914Z,62.24
2018-07-03T03:03:17.516Z,62.42
2018-07-03T03:03:49.100Z,62.38
2018-07-03T03:04:20.710Z,62.38
2018-07-03T03:04:52.284Z,62.29
2018-07-03T03:05:23.888Z,62.32
2018-07-03T03:05:55.476Z,62.30
2018-07-03T03:06:27.082Z,62.24
2018-07-03T03:06:58.689Z,62.26
2018-07-03T03:07:30.293Z,62.29
2018-07-03T03:08:01.876Z,62.30
2018-07-03T03:08:33.461Z,62.32
2018-07-03T03:09:05.052Z,62.32
2018-07-03T03:09:36.666Z,62.33
2018-07-03T03:10:08.278Z,62.38
2018-07-03T03:10:39.921Z,62.39
2018-07-03T03:11:11.506Z,62.41
2018-07-03T03:11:43.085Z,62.40
2018-07-03T03:12:14.665Z,62.42
2018-07-03T03:12:46.239Z,62.43
2018-07-03T03:13:17.821Z,62.39
2018-07-03T03:13:49.397Z,62.44
2018-07-03T03:14:20.988Z,62.43
2018-07-03T03:14:52.570Z,62.42
2018-07-03T03:15:24.176Z,62.44
2018-07-03T03:15:55.768Z,62.40
2018-07-03T03:16:27.377Z,62.37
2018-07-03T03:16:58.972Z,62.38
2018-07-03T03:17:30.577Z,62.36
2018-07-03T03:18:02.148Z,62.34
2018-07-03T03:18:33.741Z,62.33
2018-07-03T03:19:05.324Z,62.33
2018-07-03T03:19:36.929Z,62.33
2018-07-03T03:20:08.537Z,62.27
2018-07-03T03:20:40.186Z,62.27
2018-07-03T03:21:11.756Z,62.26
2018-07-03T03:21:43.361Z,62.23
2018-07-03T03:22:14.936Z,62.21
2018-07-03T03:22:46.543Z,62.19
2018-07-03T03:23:18.152Z,62.18
2018-07-03T03:23:49.775Z,62.14
2018-07-03T03:24:21.363Z,62.18
2018-07-03T03:24:52.945Z,62.17
2018-07-03T03:25:24.563Z,62.15
2018-07-03T03:25:56.166Z,62.15
2018-07-03T03:26:27.749Z,62.15
2018-07-03T03:26:59.366Z,62.13
2018-07-03T03:27:30.964Z,62.11
2018-07-03T03:28:02.576Z,62.12
2018-07-03T03:28:34.186Z,62.11
2018-07-03T03:29:05.775Z,62.05
2018-07-03T03:29:37.358Z,62.05
2018-07-03T03:30:08.939Z,62.06
2018-07-03T03:30:40.545Z,62.01
2018-07-03T03:31:12.146Z,61.99
2018-07-03T03:31:43.749Z,62.00
2018-07-03T03:32:15.337Z,62.00
2018-07-03T03:32:46.926Z,61.96
2018-07-03T03:33:18.525Z,61.96
2018-07-03T03:33:50.119Z,61.95
2018-07-03T03:34:21.729Z,61.94
2018-07-03T03:34:53.310Z,61.93
2018-07-03T03:35:24.925Z,61.92
2018-07-03T03:35:56.501Z,61.89
2018-07-03T03:36:28.101Z,61.90
2018-07-03T03:36:59.709Z,61.85
2018-07-03T03:37:31.304Z,61.86
2018-07-03T03:38:02.909Z,61.80
2018-07-03T03:38:34.513Z,61.85
2018-07-03T03:39:06.118Z,61.79
2018-07-03T03:39:37.716Z,61.78
2018-07-03T03:40:09.321Z,61.76
2018-07-03T03:40:40.916Z,61.78
2018-07-03T03:41:12.501Z,61.79
2018-07-03T03:41:44.095Z,61.78
2018-07-03T03:42:15.701Z,61.72
2018-07-03T03:42:47.291Z,61.72
2018-07-03T03:43:18.874Z,61.74
2018-07-03T03:43:50.444Z,61.71
2018-07-03T03:44:22.036Z,61.75
2018-07-03T03:44:53.631Z,61.73
2018-07-03T03:45:25.278Z,61.73
2018-07-03T03:45:56.863Z,61.69
2018-07-03T03:46:28.438Z,61.63
2018-07-03T03:47:00.020Z,61.68
2018-07-03T03:47:31.591Z,61.62
2018-07-03T03:48:03.173Z,61.66
2018-07-03T03:48:34.777Z,61.63
2018-07-03T03:49:06.389Z,61.60
2018-07-03T03:49:37.998Z,61.55
2018-07-03T03:50:09.605Z,61.59
2018-07-03T03:50:41.216Z,61.56
2018-07-03T03:51:12.805Z,61.46
2018-07-03T03:51:44.473Z,61.51
2018-07-03T03:52:16.053Z,61.48
2018-07-03T03:52:47.620Z,61.49
2018-07-03T03:53:19.188Z,61.46
2018-07-03T03:53:50.800Z,61.45
2018-07-03T03:54:22.409Z,61.40
2018-07-03T03:54:54.013Z,61.44
2018-07-03T03:55:25.588Z,61.39
2018-07-03T03:55:57.210Z,61.37
2018-07-03T03:56:28.817Z,61.30
2018-07-03T03:57:00.422Z,61.28
2018-07-03T03:57:32.013Z,61.20
2018-07-03T03:58:03.603Z,61.20
2018-07-03T03:58:35.210Z,61.16
2018-07-03T03:59:06.797Z,61.14
2018-07-03T03:59:38.385Z,61.00
2018-07-03T04:00:09.970Z,61.04
2018-07-03T04:00:41.613Z,60.92
2018-07-03T04:01:13.222Z,60.94
2018-07-03T04:01:44.791Z,60.87
2018-07-03T04:02:16.405Z,60.78
2018-07-03T04:02:47.994Z,60.72
2018-07-03T04:03:19.585Z,60.70
2018-07-03T04:03:51.189Z,60.66
2018-07-03T04:04:22.778Z,60.67
2018-07-03T04:04:54.367Z,60.63
2018-07-03T04:05:25.974Z,60.59
2018-07-03T04:05:57.619Z,60.58
2018-07-03T04:06:29.225Z,60.53
2018-07-03T04:07:00.817Z,60.52
2018-07-03T04:07:32.399Z,60.50
2018-07-03T04:08:04.006Z,60.48
2018-07-03T04:08:35.600Z,60.40
2018-07-03T04:09:07.208Z,60.36
2018-07-03T04:09:38.804Z,60.33
2018-07-03T04:10:10.395Z,60.29
2018-07-03T04:10:41.992Z,60.24
2018-07-03T04:11:13.604Z,60.16
2018-07-03T04:11:45.206Z,60.14
2018-07-03T04:12:16.780Z,60.08
2018-07-03T04:12:48.348Z,60.05
2018-07-03T04:13:19.921Z,60.03
2018-07-03T04:13:51.531Z,60.00
2018-07-03T04:14:23.137Z,60.04
2018-07-03T04:14:54.708Z,59.97
2018-07-03T04:15:26.299Z,59.90
2018-07-03T04:15:57.945Z,59.88
2018-07-03T04:16:29.516Z,59.86
2018-07-03T04:17:01.121Z,59.84
2018-07-03T04:17:32.708Z,59.79
2018-07-03T04:18:04.274Z,59.75
2018-07-03T04:18:35.873Z,59.71
2018-07-03T04:19:07.468Z,59.67
2018-07-03T04:19:39.057Z,59.58
2018-07-03T04:20:10.632Z,59.59
2018-07-03T04:20:42.234Z,59.52
2018-07-03T04:21:13.856Z,59.41
2018-07-03T04:21:45.457Z,59.32
2018-07-03T04:22:17.060Z,59.21
2018-07-03T04:22:48.674Z,59.08
2018-07-03T04:23:20.285Z,58.88
2018-07-03T04:23:51.872Z,58.55
2018-07-03T04:24:23.469Z,58.16
2018-07-03T04:24:55.041Z,57.69
2018-07-03T04:25:26.645Z,57.18
2018-07-03T04:25:58.254Z,56.54
2018-07-03T04:26:29.873Z,55.85
2018-07-03T04:27:01.457Z,55.07
2018-07-03T04:27:33.029Z,54.40
2018-07-03T04:28:04.628Z,53.76
2018-07-03T04:28:36.224Z,53.32
2018-07-03T04:29:07.800Z,52.96
2018-07-03T04:29:39.377Z,52.71
2018-07-03T04:30:10.984Z,52.50
2018-07-03T04:30:42.557Z,52.36
2018-07-03T04:31:14.152Z,52.16
2018-07-03T04:31:45.795Z,52.03
2018-07-03T04:32:17.445Z,51.80
2018-07-03T04:32:49.049Z,51.68
2018-07-03T04:33:20.634Z,51.58
2018-07-03T04:33:52.214Z,51.45
2018-07-03T04:34:23.807Z,51.19
2018-07-03T04:34:55.415Z,50.86
2018-07-03T04:35:27.021Z,50.51
2018-07-03T04:35:58.602Z,50.12
2018-07-03T04:36:30.250Z,49.80
2018-07-03T04:37:01.848Z,49.48
2018-07-03T04:37:33.459Z,49.10
2018-07-03T04:38:05.049Z,48.66
2018-07-03T04:38:36.628Z,48.25
2018-07-03T04:39:08.214Z,47.75
2018-07-03T04:39:39.793Z,47.31
2018-07-03T04:40:11.378Z,46.85
2018-07-03T04:40:42.965Z,46.48
2018-07-03T04:41:14.569Z,46.16
2018-07-03T04:41:46.197Z,45.97
2018-07-03T04:42:17.796Z,45.78
2018-07-03T04:42:49.386Z,45.66
2018-07-03T04:43:20.991Z,45.56
2018-07-03T04:43:52.598Z,45.55
2018-07-03T04:44:24.181Z,45.66
2018-07-03T04:44:55.793Z,45.82
2018-07-03T04:45:27.377Z,46.07
2018-07-03T04:45:58.957Z,46.42
2018-07-03T04:46:30.537Z,46.77
2018-07-03T04:47:02.146Z,47.08
2018-07-03T04:47:33.739Z,47.34
2018-07-03T04:48:05.333Z,47.59
2018-07-03T04:48:36.919Z,47.79
2018-07-03T04:49:08.502Z,47.95
2018-07-03T04:49:40.096Z,48.10
2018-07-03T04:50:11.706Z,48.14
2018-07-03T04:50:43.317Z,48.10
2018-07-03T04:51:14.905Z,47.92
2018-07-03T04:51:46.514Z,47.72
2018-07-03T04:52:18.107Z,47.53
2018-07-03T04:52:49.704Z,47.34
2018-07-03T04:53:21.296Z,47.11
2018-07-03T04:53:52.911Z,46.84
2018-07-03T04:54:24.494Z,46.54
2018-07-03T04:54:56.092Z,46.22
2018-07-03T04:55:27.678Z,45.96
2018-07-03T04:55:59.284Z,45.76
2018-07-03T04:56:30.873Z,45.53
2018-07-03T04:57:02.482Z,45.29
2018-07-03T04:57:34.056Z,45.10
2018-07-03T04:58:05.642Z,44.93
2018-07-03T04:58:37.240Z,44.75
2018-07-03T04:59:08.854Z,44.57
2018-07-03T04:59:40.466Z,44.42
2018-07-03T05:00:12.073Z,44.39
2018-07-03T05:00:43.681Z,44.43
2018-07-03T05:01:15.260Z,44.50
2018-07-03T05:01:46.872Z,44.63
2018-07-03T05:02:18.457Z,44.86
2018-07-03T05:02:50.036Z,45.17
2018-07-03T05:03:21.644Z,45.56
2018-07-03T05:03:53.234Z,46.00
2018-07-03T05:04:24.813Z,46.41
2018-07-03T05:04:56.405Z,46.85
2018-07-03T05:05:28.004Z,47.28
2018-07-03T05:05:59.587Z,47.64
2018-07-03T05:06:31.197Z,48.01
2018-07-03T05:07:02.772Z,48.37
2018-07-03T05:07:34.359Z,48.76
2018-07-03T05:08:05.976Z,49.18
2018-07-03T05:08:37.557Z,49.68
2018-07-03T05:09:09.162Z,50.22
2018-07-03T05:09:40.736Z,50.82
2018-07-03T05:10:12.392Z,51.39
2018-07-03T05:10:43.943Z,51.90
2018-07-03T05:11:15.529Z,52.38
2018-07-03T05:11:47.108Z,52.78
2018-07-03T05:12:18.713Z,53.16
2018-07-03T05:12:50.283Z,53.51
2018-07-03T05:13:21.855Z,53.83
2018-07-03T05:13:53.427Z,54.13
2018-07-03T05:14:25.000Z,54.42
2018-07-03T05:14:56.572Z,54.70
2018-07-03T05:15:28.182Z,54.92
2018-07-03T05:15:59.789Z,55.15
2018-07-03T05:16:31.387Z,55.37
2018-07-03T05:17:03.023Z,55.58
2018-07-03T05:17:34.673Z,55.79
2018-07-03T05:18:06.250Z,55.97
2018-07-03T05:18:37.910Z,56.17
2018-07-03T05:19:09.509Z,56.37
2018-07-03T05:19:41.089Z,56.58
2018-07-03T05:20:12.684Z,56.74
2018-07-03T05:20:44.294Z,56.92
2018-07-03T05:21:15.906Z,57.09
2018-07-03T05:21:47.513Z,57.22
2018-07-03T05:22:19.114Z,57.35
2018-07-03T05:22:50.726Z,57.46
2018-07-03T05:23:22.305Z,57.57
2018-07-03T05:23:53.914Z,57.68
2018-07-03T05:24:25.503Z,57.77
2018-07-03T05:24:57.096Z,57.88
2018-07-03T05:25:28.681Z,57.98
2018-07-03T05:26:00.281Z,58.07
2018-07-03T05:26:31.893Z,58.13
2018-07-03T05:27:03.548Z,58.21
2018-07-03T05:27:35.154Z,58.28
2018-07-03T05:28:06.737Z,58.35
2018-07-03T05:28:38.317Z,58.43
2018-07-03T05:29:09.920Z,58.47
2018-07-03T05:29:41.516Z,58.53
2018-07-03T05:30:13.125Z,58.59
2018-07-03T05:30:44.714Z,58.63
2018-07-03T05:31:16.317Z,58.67
2018-07-03T05:31:47.938Z,58.71
2018-07-03T05:32:19.571Z,58.74
2018-07-03T05:32:51.166Z,58.77
2018-07-03T05:33:22.753Z,58.80
2018-07-03T05:33:54.361Z,58.81
2018-07-03T05:34:25.939Z,58.86
2018-07-03T05:34:57.528Z,58.88
2018-07-03T05:35:29.114Z,58.88
2018-07-03T05:36:00.711Z,58.87
2018-07-03T05:36:32.299Z,58.88
2018-07-03T05:37:03.892Z,58.93
2018-07-03T05:37:35.525Z,58.97
2018-07-03T05:38:07.100Z,59.02
2018-07-03T05:38:38.692Z,59.02
2018-07-03T05:39:10.289Z,59.03
2018-07-03T05:39:41.877Z,59.04
2018-07-03T05:40:13.482Z,59.04
2018-07-03T05:40:45.270Z,59.06
2018-07-03T05:41:16.690Z,59.05
2018-07-03T05:41:48.279Z,59.04
2018-07-03T05:42:19.890Z,59.07
2018-07-03T05:42:51.546Z,59.08
2018-07-03T05:43:23.121Z,59.08
2018-07-03T05:43:54.733Z,59.09
2018-07-03T05:44:26.337Z,59.07
2018-07-03T05:44:58.028Z,59.07
2018-07-03T05:45:29.536Z,59.08
2018-07-03T05:46:01.145Z,59.05
2018-07-03T05:46:32.720Z,59.04
2018-07-03T05:47:04.304Z,59.04
2018-07-03T05:47:35.928Z,59.02
2018-07-03T05:48:07.513Z,59.05
2018-07-03T05:48:39.107Z,59.04
2018-07-03T05:49:10.690Z,59.04
2018-07-03T05:49:42.294Z,59.03
2018-07-03T05:50:13.878Z,59.00
2018-07-03T05:50:45.458Z,58.99
2018-07-03T05:51:17.069Z,58.99
2018-07-03T05:51:48.664Z,59.00
2018-07-03T05:52:20.299Z,58.99
2018-07-03T05:52:51.910Z,58.98
2018-07-03T05:53:23.493Z,58.96
2018-07-03T05:53:55.060Z,58.93
2018-07-03T05:54:26.627Z,58.93
2018-07-03T05:54:58.209Z,58.91
2018-07-03T05:55:29.814Z,58.93
2018-07-03T05:56:01.426Z,58.92
2018-07-03T05:56:33.025Z,58.93
2018-07-03T05:57:04.783Z,58.88
2018-07-03T05:57:36.287Z,58.89
2018-07-03T05:58:07.874Z,58.80
2018-07-03T05:58:39.474Z,58.87
2018-07-03T05:59:11.257Z,58.86
2018-07-03T05:59:42.686Z,58.82
2018-07-03T06:00:14.279Z,58.81
2018-07-03T06:00:45.894Z,58.80
2018-07-03T06:01:17.506Z,58.79
2018-07-03T06:01:49.111Z,58.83
2018-07-03T06:02:20.721Z,58.80
2018-07-03T06:02:52.312Z,58.74
2018-07-03T06:03:23.894Z,58.71
2018-07-03T06:03:55.536Z,58.69
2018-07-03T06:04:27.089Z,58.71
2018-07-03T06:04:58.660Z,58.73
2018-07-03T06:05:30.241Z,58.73
2018-07-03T06:06:01.818Z,58.73
2018-07-03T06:06:33.402Z,58.69
2018-07-03T06:07:04.986Z,58.67
2018-07-03T06:07:36.598Z,58.70
2018-07-03T06:08:08.189Z,58.74
2018-07-03T06:08:39.756Z,58.69
2018-07-03T06:09:11.329Z,58.68
2018-07-03T06:09:42.924Z,58.64
2018-07-03T06:10:14.514Z,58.67
2018-07-03T06:10:46.103Z,58.66
2018-07-03T06:11:17.686Z,58.70
2018-07-03T06:11:49.274Z,58.54
2018-07-03T06:12:20.858Z,58.67
2018-07-03T06:12:52.494Z,58.58
2018-07-03T06:13:24.076Z,58.62
2018-07-03T06:13:55.657Z,58.63
2018-07-03T06:14:27.236Z,58.59
2018-07-03T06:14:58.919Z,58.60
2018-07-03T06:15:30.433Z,58.70
2018-07-03T06:16:02.008Z,58.57
2018-07-03T06:16:33.580Z,58.56
2018-07-03T06:17:05.157Z,58.40
2018-07-03T06:17:36.767Z,58.46
2018-07-03T06:18:08.340Z,58.45
2018-07-03T06:18:39.932Z,58.46
2018-07-03T06:19:11.537Z,58.50
2018-07-03T06:19:43.131Z,58.32
2018-07-03T06:20:14.727Z,58.33
2018-07-03T06:20:46.308Z,58.34
2018-07-03T06:21:17.889Z,58.30
2018-07-03T06:21:49.494Z,58.26
2018-07-03T06:22:21.077Z,58.22
2018-07-03T06:22:52.912Z,58.14
2018-07-03T06:23:24.422Z,58.14
2018-07-03T06:23:56.000Z,58.31
2018-07-03T06:24:27.571Z,58.15
2018-07-03T06:24:59.178Z,58.13
2018-07-03T06:25:30.766Z,58.14
2018-07-03T06:26:02.368Z,58.17
2018-07-03T06:26:33.982Z,58.14
2018-07-03T06:27:05.566Z,58.22
2018-07-03T06:27:37.154Z,58.15
2018-07-03T06:28:08.757Z,58.28
2018-07-03T06:28:40.377Z,58.25
2018-07-03T06:29:11.986Z,58.21
2018-07-03T06:29:43.584Z,58.21
2018-07-03T06:30:15.161Z,58.18
2018-07-03T06:30:46.765Z,58.07
2018-07-03T06:31:18.353Z,58.10
2018-07-03T06:31:49.937Z,58.20
2018-07-03T06:32:21.510Z,58.14
2018-07-03T06:32:53.127Z,58.09
2018-07-03T06:33:24.710Z,58.26
2018-07-03T06:33:56.280Z,58.21
2018-07-03T06:34:27.876Z,58.14
2018-07-03T06:34:59.488Z,58.13
2018-07-03T06:35:31.098Z,58.19
2018-07-03T06:36:02.677Z,58.14
2018-07-03T06:36:34.276Z,58.08
2018-07-03T06:37:05.886Z,58.03
2018-07-03T06:37:37.549Z,58.07
2018-07-03T06:38:09.106Z,57.99
2018-07-03T06:38:40.713Z,58.00
2018-07-03T06:39:12.303Z,57.96
2018-07-03T06:39:43.895Z,57.93
2018-07-03T06:40:15.471Z,57.84
2018-07-03T06:40:47.048Z,57.79
2018-07-03T06:41:18.624Z,57.76
2018-07-03T06:41:50.219Z,57.77
2018-07-03T06:42:21.792Z,57.75
2018-07-03T06:42:53.398Z,57.68
2018-07-03T06:43:24.967Z,57.64
2018-07-03T06:43:56.582Z,57.60
2018-07-03T06:44:28.189Z,57.61
2018-07-03T06:44:59.810Z,57.58
2018-07-03T06:45:31.422Z,57.54
2018-07-03T06:46:03.029Z,57.55
2018-07-03T06:46:34.642Z,57.49
2018-07-03T06:47:06.249Z,57.51